createdAt,value
2023-03-17T00:02:22.341Z,53.16
2023-03-17T00:04:48.974Z,51.09
2023-03-17T00:07:15.650Z,49.64
2023-03-17T00:09:42.405Z,50.36
2023-03-17T00:12:12.364Z,49.19
2023-03-17T00:14:39.049Z,49.56
2023-03-17T00:17:05.703Z,51.73
2023-03-17T00:19:33.564Z,51.72
2023-03-17T00:22:00.401Z,50.65
2023-03-17T00:24:27.537Z,50.42
2023-03-17T00:26:54.326Z,50.18
2023-03-17T00:29:21.045Z,51.30
2023-03-17T00:31:47.742Z,52.56
2023-03-17T00:34:16.442Z,52.13
2023-03-17T00:36:43.213Z,49.84
2023-03-17T00:41:39.625Z,51.74
2023-03-17T00:44:06.545Z,51.58
2023-03-17T00:46:33.220Z,52.45
2023-03-17T00:48:59.920Z,52.53
2023-03-17T00:51:26.646Z,51.36
2023-03-17T00:53:54.981Z,51.12
2023-03-17T00:56:21.705Z,50.64
2023-03-17T00:58:48.455Z,51.13
2023-03-17T01:01:15.300Z,51.33
2023-03-17T01:03:41.988Z,50.81
2023-03-17T01:06:10.928Z,51.56
2023-03-17T01:08:38.506Z,51.98
2023-03-17T01:11:05.298Z,50.44
2023-03-17T01:13:32.505Z,51.14
2023-03-17T01:15:59.291Z,51.19
2023-03-17T01:18:26.002Z,51.60
2023-03-17T01:20:52.679Z,51.14
2023-03-17T01:23:19.389Z,51.82
2023-03-17T01:25:46.005Z,51.68
2023-03-17T01:28:16.684Z,52.06
2023-03-17T01:30:43.450Z,53.15
2023-03-17T01:33:10.618Z,53.15
2023-03-17T01:35:37.336Z,52.33
2023-03-17T01:38:04.868Z,52.90
2023-03-17T01:40:33.513Z,52.42
2023-03-17T01:43:02.628Z,52.38
2023-03-17T01:46:06.901Z,52.07
2023-03-17T01:48:36.775Z,51.91
2023-03-17T01:51:03.507Z,51.80
2023-03-17T01:53:30.237Z,50.95
2023-03-17T01:55:56.893Z,52.39
2023-03-17T01:58:23.565Z,52.47
2023-03-17T02:00:50.598Z,52.65
2023-03-17T02:03:17.338Z,53.01
2023-03-17T02:05:44.057Z,52.69
2023-03-17T02:08:14.789Z,52.23
2023-03-17T02:10:41.502Z,52.18
2023-03-17T02:13:09.250Z,53.04
2023-03-17T02:15:43.486Z,52.99
2023-03-17T02:18:10.119Z,52.75
2023-03-17T02:20:36.672Z,52.13
2023-03-17T02:23:03.427Z,51.98
2023-03-17T02:25:31.679Z,51.23
2023-03-17T02:28:01.383Z,50.97
2023-03-17T02:30:28.362Z,51.06
2023-03-17T02:32:55.210Z,51.80
2023-03-17T02:35:21.926Z,52.83
2023-03-17T02:37:48.608Z,52.19
2023-03-17T02:40:15.386Z,52.41
2023-03-17T02:42:42.214Z,53.09
2023-03-17T02:45:10.198Z,53.22
2023-03-17T02:47:37.104Z,52.77
2023-03-17T02:50:04.657Z,52.74
2023-03-17T02:52:31.666Z,51.37
2023-03-17T02:54:58.317Z,52.25
2023-03-17T02:57:24.942Z,50.66
2023-03-17T02:59:51.607Z,51.00
2023-03-17T03:02:18.366Z,51.11
2023-03-17T03:04:45.190Z,51.36
2023-03-17T03:07:12.203Z,52.00
2023-03-17T03:09:38.826Z,53.35
2023-03-17T03:12:05.859Z,52.64
2023-03-17T03:14:32.596Z,52.27
2023-03-17T03:16:59.207Z,51.94
2023-03-17T03:19:25.994Z,51.73
2023-03-17T03:21:52.610Z,52.43
2023-03-17T03:24:19.258Z,52.19
2023-03-17T03:26:45.918Z,53.16
2023-03-17T03:29:12.575Z,53.01
2023-03-17T03:31:39.299Z,53.98
2023-03-17T03:34:05.931Z,53.60
2023-03-17T03:36:32.592Z,53.03
2023-03-17T03:38:59.304Z,53.21
2023-03-17T03:41:25.927Z,53.68
2023-03-17T03:43:52.652Z,52.90
2023-03-17T03:46:19.429Z,51.30
2023-03-17T03:48:46.141Z,52.79
2023-03-17T03:51:12.802Z,52.16
2023-03-17T03:53:39.488Z,52.50
2023-03-17T03:56:06.496Z,51.75
2023-03-17T03:58:33.110Z,51.74
2023-03-17T04:00:59.908Z,53.39
2023-03-17T04:03:26.527Z,53.95
2023-03-17T04:05:53.247Z,54.27
2023-03-17T04:08:19.885Z,53.89
2023-03-17T04:10:46.503Z,53.05
2023-03-17T04:13:13.147Z,52.07
2023-03-17T04:15:39.772Z,53.55
2023-03-17T04:18:06.424Z,52.62
2023-03-17T04:20:33.478Z,51.96
2023-03-17T04:23:00.258Z,52.59
2023-03-17T04:25:26.932Z,53.77
2023-03-17T04:27:53.661Z,54.03
2023-03-17T04:30:20.338Z,52.48
2023-03-17T04:32:46.956Z,51.94
2023-03-17T04:35:17.875Z,53.80
2023-03-17T04:37:44.609Z,54.46
2023-03-17T04:40:12.405Z,54.08
2023-03-17T04:42:39.137Z,54.10
2023-03-17T04:45:06.505Z,54.27
2023-03-17T04:47:33.400Z,54.51
2023-03-17T04:50:00.231Z,54.03
2023-03-17T04:52:26.929Z,54.48
2023-03-17T04:54:53.545Z,55.39
2023-03-17T04:57:20.349Z,53.80
2023-03-17T04:59:47.146Z,52.62
2023-03-17T05:02:13.807Z,55.01
2023-03-17T05:04:40.524Z,55.43
2023-03-17T05:07:07.294Z,53.63
2023-03-17T05:09:34.036Z,53.81
2023-03-17T05:12:00.687Z,53.51
2023-03-17T05:14:27.332Z,54.46
2023-03-17T05:16:54.031Z,54.64
2023-03-17T05:19:21.993Z,54.71
2023-03-17T05:21:48.673Z,55.53
2023-03-17T05:24:15.342Z,55.54
2023-03-17T05:26:41.953Z,54.81
2023-03-17T05:29:08.599Z,54.82
2023-03-17T05:31:35.310Z,54.58
2023-03-17T05:34:01.970Z,54.27
2023-03-17T05:36:28.657Z,56.01
2023-03-17T05:38:55.343Z,55.99
2023-03-17T05:41:21.991Z,54.50
2023-03-17T05:43:48.665Z,55.22
2023-03-17T05:46:15.427Z,55.05
2023-03-17T05:48:42.169Z,55.85
2023-03-17T05:51:08.828Z,56.00
2023-03-17T05:53:35.530Z,56.65
2023-03-17T05:56:02.398Z,55.27
2023-03-17T05:58:29.077Z,55.57
2023-03-17T06:00:55.782Z,55.80
2023-03-17T06:03:22.484Z,55.59
2023-03-17T06:05:49.147Z,55.35
2023-03-17T06:08:15.774Z,56.66
2023-03-17T06:10:42.421Z,56.07
2023-03-17T06:13:09.123Z,55.71
2023-03-17T06:15:35.792Z,55.45
2023-03-17T06:18:03.110Z,55.65
2023-03-17T06:20:29.735Z,55.16
2023-03-17T06:23:04.585Z,56.49
2023-03-17T06:25:33.498Z,56.10
2023-03-17T06:28:00.446Z,54.99
2023-03-17T06:30:27.210Z,55.44
2023-03-17T06:32:53.897Z,54.95
2023-03-17T06:35:20.593Z,56.20
2023-03-17T06:37:47.316Z,56.46
2023-03-17T06:40:14.117Z,54.72
2023-03-17T06:42:40.926Z,55.93
2023-03-17T06:45:08.209Z,56.18
2023-03-17T06:47:35.498Z,54.81
2023-03-17T06:50:02.392Z,54.51
2023-03-17T06:52:29.050Z,54.76
2023-03-17T06:54:55.730Z,56.28
2023-03-17T06:57:22.482Z,56.46
2023-03-17T06:59:49.125Z,56.43
2023-03-17T07:02:15.802Z,56.14
2023-03-17T07:04:42.523Z,55.62
2023-03-17T07:07:09.266Z,55.30
2023-03-17T07:09:35.894Z,54.33
2023-03-17T07:12:02.761Z,55.21
2023-03-17T07:14:29.426Z,56.07
2023-03-17T07:16:56.032Z,56.03
2023-03-17T07:19:22.711Z,54.28
2023-03-17T07:21:49.391Z,55.73
2023-03-17T07:24:16.561Z,56.18
2023-03-17T07:26:43.248Z,55.45
2023-03-17T07:29:09.896Z,55.11
2023-03-17T07:31:36.682Z,54.97
2023-03-17T07:34:03.400Z,54.64
2023-03-17T07:36:30.254Z,53.52
2023-03-17T07:38:56.910Z,53.65
2023-03-17T07:41:23.697Z,54.30
2023-03-17T07:43:50.441Z,54.38
2023-03-17T07:46:17.169Z,54.01
2023-03-17T07:48:43.859Z,53.99
2023-03-17T07:51:14.963Z,52.70
2023-03-17T07:53:41.908Z,52.76
2023-03-17T07:56:08.834Z,52.03
2023-03-17T07:58:35.631Z,51.70
2023-03-17T08:01:02.297Z,51.14
2023-03-17T08:03:29.237Z,51.24
2023-03-17T08:05:55.964Z,51.88
2023-03-17T08:08:23.587Z,50.13
2023-03-17T08:10:50.681Z,50.18
2023-03-17T08:13:17.713Z,49.49
2023-03-17T08:15:44.655Z,49.64
2023-03-17T08:18:11.267Z,49.55
2023-03-17T08:20:37.925Z,49.52
2023-03-17T08:23:04.626Z,49.49
2023-03-17T08:25:32.782Z,48.71
2023-03-17T08:27:59.441Z,48.49
2023-03-17T08:30:26.188Z,47.70
2023-03-17T08:32:53.022Z,48.39
2023-03-17T08:35:19.796Z,48.41
2023-03-17T08:37:47.133Z,47.43
2023-03-17T08:40:15.091Z,46.84
2023-03-17T08:42:41.792Z,46.88
2023-03-17T08:45:08.581Z,46.34
2023-03-17T08:47:35.444Z,47.37
2023-03-17T08:50:02.097Z,44.95
2023-03-17T08:52:28.767Z,44.64
2023-03-17T08:54:55.438Z,44.28
2023-03-17T08:57:22.093Z,42.48
2023-03-17T08:59:48.814Z,42.69
2023-03-17T09:02:15.542Z,40.53
2023-03-17T09:04:42.217Z,44.08
2023-03-17T09:07:09.702Z,43.67
2023-03-17T09:09:36.530Z,44.31
2023-03-17T09:12:03.714Z,43.37
2023-03-17T09:14:35.313Z,44.28
2023-03-17T09:17:09.335Z,44.34
2023-03-17T09:19:36.110Z,44.55
2023-03-17T09:22:03.009Z,44.54
2023-03-17T09:24:29.707Z,44.70
2023-03-17T09:26:56.388Z,44.96
2023-03-17T09:29:23.076Z,42.95
2023-03-17T09:31:49.726Z,43.12
2023-03-17T09:34:16.347Z,43.67
2023-03-17T09:36:43.050Z,43.78
2023-03-17T09:39:09.722Z,43.68
2023-03-17T09:41:57.959Z,41.66
2023-03-17T09:45:02.082Z,41.60
2023-03-17T09:47:41.036Z,40.17
2023-03-17T09:50:19.896Z,41.94
2023-03-17T09:52:46.582Z,41.82
2023-03-17T09:55:20.208Z,42.37
2023-03-17T09:57:46.863Z,42.21
2023-03-17T10:00:18.062Z,43.98
2023-03-17T10:02:44.873Z,43.75
2023-03-17T10:05:21.951Z,44.13
2023-03-17T10:07:58.695Z,43.71
2023-03-17T10:10:29.343Z,42.60
2023-03-17T10:13:02.067Z,42.82
2023-03-17T10:15:35.058Z,43.05
2023-03-17T10:18:07.805Z,42.23
2023-03-17T10:20:35.012Z,42.43
2023-03-17T10:23:03.705Z,42.00
2023-03-17T10:25:30.629Z,41.51
2023-03-17T10:28:08.945Z,41.34
2023-03-17T10:30:35.764Z,41.01
2023-03-17T10:33:03.598Z,40.14
2023-03-17T10:35:30.880Z,39.43
2023-03-17T10:38:13.438Z,36.36
2023-03-17T10:40:40.879Z,36.34
2023-03-17T10:43:07.733Z,34.29
2023-03-17T10:45:40.904Z,38.62
2023-03-17T10:48:08.901Z,39.00
2023-03-17T10:50:39.210Z,39.66
2023-03-17T10:53:09.686Z,39.83
2023-03-17T10:55:40.615Z,40.08
2023-03-17T10:58:14.877Z,39.25
2023-03-17T11:00:58.365Z,39.12
2023-03-17T11:03:27.499Z,39.02
2023-03-17T11:06:01.015Z,39.04
2023-03-17T11:08:41.473Z,38.64
2023-03-17T11:11:10.746Z,38.74
2023-03-17T11:13:37.412Z,38.64
2023-03-17T11:16:20.811Z,37.80
2023-03-17T11:18:47.528Z,35.89
2023-03-17T11:21:20.213Z,36.35
2023-03-17T11:24:07.077Z,34.97
2023-03-17T11:26:47.950Z,32.78
2023-03-17T11:29:42.280Z,33.28
2023-03-17T11:32:26.205Z,32.57
2023-03-17T11:35:01.835Z,33.15
2023-03-17T11:37:40.210Z,35.93
2023-03-17T11:40:15.678Z,35.97
2023-03-17T11:43:12.390Z,36.17
2023-03-17T11:45:52.469Z,36.77
2023-03-17T11:48:24.378Z,36.59
2023-03-17T11:50:57.796Z,37.26
2023-03-17T11:53:42.718Z,37.62
2023-03-17T11:56:19.958Z,36.01
2023-03-17T11:59:00.733Z,34.60
2023-03-17T12:01:30.051Z,34.88
2023-03-17T12:04:20.507Z,35.97
2023-03-17T12:06:50.175Z,33.67
2023-03-17T12:09:25.520Z,34.23
2023-03-17T12:11:52.135Z,33.93
2023-03-17T12:14:18.612Z,33.88
2023-03-17T12:16:50.322Z,32.53
2023-03-17T12:19:25.821Z,32.84
2023-03-17T12:21:57.837Z,32.54
2023-03-17T12:24:24.378Z,32.33
2023-03-17T12:26:53.897Z,34.09
2023-03-17T12:29:42.360Z,33.37
2023-03-17T12:32:36.009Z,33.25
2023-03-17T12:35:25.228Z,31.35
2023-03-17T12:37:52.727Z,32.36
2023-03-17T12:41:00.633Z,30.00
2023-03-17T12:44:14.783Z,29.75
2023-03-17T12:47:06.240Z,29.54
2023-03-17T12:49:56.692Z,29.27
2023-03-17T12:52:54.134Z,29.39
2023-03-17T12:55:25.590Z,29.58
2023-03-17T12:58:06.473Z,30.04
2023-03-17T13:00:34.442Z,30.06
2023-03-17T13:03:16.307Z,28.65
2023-03-17T13:05:46.962Z,28.54
2023-03-17T13:08:15.686Z,28.63
2023-03-17T13:10:45.819Z,28.17
2023-03-17T13:13:21.596Z,28.42
2023-03-17T13:15:50.974Z,28.21
2023-03-17T13:18:17.521Z,28.38
2023-03-17T13:20:44.979Z,28.27
2023-03-17T13:23:11.530Z,27.89
2023-03-17T13:25:38.075Z,27.89
2023-03-17T13:28:10.746Z,27.85
2023-03-17T13:30:37.291Z,28.93
2023-03-17T13:33:09.976Z,28.70
2023-03-17T13:35:56.399Z,28.81
2023-03-17T13:38:35.041Z,28.33
2023-03-17T13:41:26.677Z,29.09
2023-03-17T13:44:22.261Z,30.09
2023-03-17T13:46:49.026Z,30.99
2023-03-17T13:49:18.726Z,30.74
2023-03-17T13:52:07.138Z,30.12
2023-03-17T13:54:34.821Z,29.92
2023-03-17T13:57:26.195Z,29.99
2023-03-17T13:59:57.700Z,32.64
2023-03-17T14:02:24.520Z,29.43
2023-03-17T14:04:57.877Z,31.50
2023-03-17T14:07:27.954Z,33.04
2023-03-17T14:10:01.496Z,33.25
2023-03-17T14:12:44.682Z,32.58
2023-03-17T14:15:20.407Z,34.99
2023-03-17T14:18:17.441Z,33.33
2023-03-17T14:20:54.254Z,34.08
2023-03-17T14:23:20.882Z,32.93
2023-03-17T14:25:47.589Z,33.17
2023-03-17T14:28:16.123Z,33.07
2023-03-17T14:30:51.326Z,31.39
2023-03-17T14:33:28.226Z,32.38
2023-03-17T14:35:57.528Z,31.62
2023-03-17T14:38:29.253Z,31.86
2023-03-17T14:41:13.948Z,32.03
2023-03-17T14:43:40.772Z,31.37
2023-03-17T14:46:18.780Z,32.08
2023-03-17T14:48:47.731Z,30.78
2023-03-17T14:51:23.249Z,30.92
2023-03-17T14:53:50.841Z,31.41
2023-03-17T14:56:22.480Z,30.59
2023-03-17T14:58:50.526Z,30.66
2023-03-17T15:01:22.718Z,30.36
2023-03-17T15:04:07.044Z,30.27
2023-03-17T15:06:35.176Z,30.02
2023-03-17T15:09:17.981Z,30.96
2023-03-17T15:11:44.783Z,30.56
2023-03-17T15:14:39.847Z,31.33
2023-03-17T15:17:14.396Z,31.33
2023-03-17T15:19:43.722Z,32.14
2023-03-17T15:22:31.865Z,31.49
2023-03-17T15:24:58.422Z,31.63
2023-03-17T15:27:25.368Z,32.18
2023-03-17T15:29:52.015Z,34.43
2023-03-17T15:32:20.228Z,34.81
2023-03-17T15:34:47.904Z,32.43
2023-03-17T15:37:21.938Z,31.92
2023-03-17T15:39:48.951Z,30.93
2023-03-17T15:42:16.423Z,31.00
2023-03-17T15:44:43.154Z,31.86
2023-03-17T15:47:14.420Z,32.38
2023-03-17T15:49:41.406Z,33.03
2023-03-17T15:52:18.778Z,32.59
2023-03-17T15:54:45.606Z,32.62
2023-03-17T15:57:12.364Z,33.65
2023-03-17T15:59:39.871Z,34.58
2023-03-17T16:02:33.062Z,34.88
2023-03-17T16:05:00.483Z,36.36
2023-03-17T16:07:27.137Z,35.19
2023-03-17T16:09:53.878Z,34.51
2023-03-17T16:12:20.539Z,33.26
2023-03-17T16:14:48.515Z,34.01
2023-03-17T16:17:25.264Z,32.95
2023-03-17T16:19:53.134Z,33.61
2023-03-17T16:22:49.029Z,36.40
2023-03-17T16:25:21.571Z,37.19
2023-03-17T16:27:48.500Z,37.98
2023-03-17T16:30:16.717Z,38.22
2023-03-17T16:32:43.409Z,37.19
2023-03-17T16:35:19.963Z,34.12
2023-03-17T16:37:46.752Z,34.86
2023-03-17T16:40:18.364Z,34.53
2023-03-17T16:42:45.128Z,34.94
2023-03-17T16:45:18.136Z,34.92
2023-03-17T16:47:44.753Z,36.83
2023-03-17T16:50:18.499Z,35.03
2023-03-17T16:52:45.182Z,35.44
2023-03-17T16:55:11.905Z,36.02
2023-03-17T16:57:38.589Z,37.21
2023-03-17T17:00:06.246Z,37.48
2023-03-17T17:02:32.917Z,37.24
2023-03-17T17:04:59.627Z,39.38
2023-03-17T17:07:26.293Z,38.73
2023-03-17T17:09:52.964Z,39.79
2023-03-17T17:12:19.706Z,38.45
2023-03-17T17:14:46.389Z,38.37
2023-03-17T17:17:13.064Z,39.38
2023-03-17T17:19:39.725Z,41.92
2023-03-17T17:22:06.339Z,39.00
2023-03-17T17:24:35.330Z,40.72
2023-03-17T17:27:01.959Z,42.71
2023-03-17T17:29:30.660Z,39.79
2023-03-17T17:31:58.550Z,41.74
2023-03-17T17:34:25.407Z,42.64
2023-03-17T17:36:52.095Z,43.00
2023-03-17T17:39:18.748Z,42.92
2023-03-17T17:41:45.404Z,41.19
2023-03-17T17:44:12.053Z,42.95
2023-03-17T17:46:38.743Z,40.92
2023-03-17T17:49:05.354Z,42.28
2023-03-17T17:51:31.998Z,43.78
2023-03-17T17:53:58.838Z,44.62
2023-03-17T17:56:25.447Z,43.75
2023-03-17T17:58:52.065Z,42.81
2023-03-17T18:01:18.875Z,43.90
2023-03-17T18:03:45.990Z,43.09
2023-03-17T18:06:12.686Z,42.99
2023-03-17T18:08:39.587Z,42.14
2023-03-17T18:11:06.303Z,41.96
2023-03-17T18:13:32.902Z,42.00
2023-03-17T18:15:59.504Z,43.59
2023-03-17T18:18:26.195Z,43.32
2023-03-17T18:20:52.864Z,43.92
2023-03-17T18:23:19.989Z,43.49
2023-03-17T18:25:46.856Z,42.65
2023-03-17T18:28:13.550Z,43.51
2023-03-17T18:30:40.222Z,44.09
2023-03-17T18:33:13.373Z,44.99
2023-03-17T18:35:40.042Z,45.02
2023-03-17T18:38:06.687Z,44.09
2023-03-17T18:40:33.924Z,44.40
2023-03-17T18:43:00.740Z,44.68
2023-03-17T18:45:27.493Z,44.27
2023-03-17T18:47:54.193Z,45.60
2023-03-17T18:50:21.229Z,45.32
2023-03-17T18:52:48.125Z,45.41
2023-03-17T18:55:15.126Z,45.01
2023-03-17T18:57:44.453Z,46.91
2023-03-17T19:00:12.591Z,45.00
2023-03-17T19:02:40.639Z,44.95
2023-03-17T19:05:07.615Z,44.88
2023-03-17T19:07:34.503Z,45.09
2023-03-17T19:10:01.172Z,46.33
2023-03-17T19:12:27.883Z,45.97
2023-03-17T19:14:54.837Z,44.81
2023-03-17T19:17:21.534Z,44.48
2023-03-17T19:19:48.444Z,45.38
2023-03-17T19:22:17.210Z,42.47
2023-03-17T19:24:43.929Z,45.96
2023-03-17T19:27:10.563Z,44.57
2023-03-17T19:29:37.153Z,43.74
2023-03-17T19:32:03.815Z,43.77
2023-03-17T19:34:30.462Z,42.68
2023-03-17T19:36:57.273Z,44.05
2023-03-17T19:39:23.894Z,43.24
2023-03-17T19:41:50.635Z,43.75
2023-03-17T19:44:17.297Z,44.48
2023-03-17T19:46:44.020Z,45.52
2023-03-17T19:49:10.710Z,43.48
2023-03-17T19:51:37.403Z,43.33
2023-03-17T19:54:04.236Z,44.00
2023-03-17T19:56:30.982Z,43.79
2023-03-17T19:58:57.616Z,42.86
2023-03-17T20:01:24.262Z,45.71
2023-03-17T20:03:50.950Z,44.02
2023-03-17T20:06:17.630Z,43.87
2023-03-17T20:08:44.308Z,43.84
2023-03-17T20:11:11.587Z,45.06
2023-03-17T20:13:38.227Z,41.80
2023-03-17T20:16:05.850Z,44.31
2023-03-17T20:18:32.754Z,44.74
2023-03-17T20:20:59.469Z,42.63
2023-03-17T20:23:26.415Z,42.06
2023-03-17T20:25:53.234Z,41.40
2023-03-17T20:28:20.515Z,42.25
2023-03-17T20:30:47.227Z,42.29
2023-03-17T20:33:14.044Z,42.75
2023-03-17T20:35:43.027Z,42.54
2023-03-17T20:38:10.784Z,41.00
2023-03-17T20:40:37.413Z,40.70
2023-03-17T20:43:04.570Z,38.90
2023-03-17T20:45:31.207Z,39.27
2023-03-17T20:47:58.032Z,39.22
2023-03-17T20:50:24.779Z,39.20
2023-03-17T20:52:51.610Z,39.89
2023-03-17T20:55:18.403Z,40.52
2023-03-17T20:57:45.018Z,41.01
2023-03-17T21:00:12.708Z,41.25
2023-03-17T21:02:39.419Z,42.82
2023-03-17T21:05:07.592Z,42.00
2023-03-17T21:07:34.310Z,42.39
2023-03-17T21:10:01.760Z,41.64
2023-03-17T21:12:28.406Z,42.63
2023-03-17T21:14:55.082Z,41.51
2023-03-17T21:17:21.801Z,42.21
2023-03-17T21:19:48.685Z,42.58
2023-03-17T21:22:15.371Z,42.14
2023-03-17T21:24:42.031Z,42.95
2023-03-17T21:27:08.886Z,42.45
2023-03-17T21:29:35.500Z,43.02
2023-03-17T21:32:02.187Z,43.20
2023-03-17T21:34:29.754Z,43.02
2023-03-17T21:36:56.595Z,43.81
2023-03-17T21:39:23.457Z,43.74
2023-03-17T21:41:50.245Z,44.35
2023-03-17T21:44:17.251Z,44.15
2023-03-17T21:46:44.842Z,43.64
2023-03-17T21:49:11.658Z,43.56
2023-03-17T21:51:39.638Z,42.87
2023-03-17T21:54:06.350Z,42.96
2023-03-17T21:56:33.236Z,43.80
2023-03-17T21:59:00.139Z,43.71
2023-03-17T22:01:26.886Z,43.99
2023-03-17T22:03:53.786Z,44.17
2023-03-17T22:06:20.532Z,43.80
2023-03-17T22:08:47.281Z,43.44
2023-03-17T22:11:15.815Z,43.39
2023-03-17T22:13:42.735Z,42.35
2023-03-17T22:16:10.262Z,41.84
2023-03-17T22:18:36.962Z,42.26
2023-03-17T22:21:04.139Z,42.09
2023-03-17T22:23:30.824Z,41.32
2023-03-17T22:25:57.612Z,41.31
2023-03-17T22:28:24.553Z,41.16
2023-03-17T22:30:51.255Z,40.67
2023-03-17T22:33:18.005Z,41.02
2023-03-17T22:35:44.753Z,41.21
2023-03-17T22:38:11.551Z,41.61
2023-03-17T22:40:38.273Z,41.19
2023-03-17T22:43:05.502Z,40.82
2023-03-17T22:45:32.111Z,40.74
2023-03-17T22:47:58.800Z,40.41
2023-03-17T22:50:25.409Z,40.72
2023-03-17T22:52:52.054Z,39.95
2023-03-17T22:55:21.622Z,40.28
2023-03-17T22:57:48.373Z,40.97
2023-03-17T23:00:15.791Z,40.98
2023-03-17T23:02:43.952Z,41.01
2023-03-17T23:05:10.787Z,40.73
2023-03-17T23:07:49.496Z,41.34
2023-03-17T23:10:17.654Z,41.08
2023-03-17T23:12:44.469Z,41.76
2023-03-17T23:15:11.488Z,41.35
2023-03-17T23:17:38.227Z,41.19
2023-03-17T23:20:05.280Z,41.04
2023-03-17T23:22:32.189Z,42.55
2023-03-17T23:24:58.966Z,41.70
2023-03-17T23:27:25.653Z,42.39
2023-03-17T23:29:52.384Z,42.33
2023-03-17T23:32:19.139Z,42.68
2023-03-17T23:34:45.803Z,42.61
2023-03-17T23:37:15.974Z,42.82
2023-03-17T23:39:42.806Z,43.29
2023-03-17T23:42:09.628Z,44.18
2023-03-17T23:44:36.295Z,44.26
2023-03-17T23:47:03.171Z,44.70
2023-03-17T23:49:29.826Z,44.32
2023-03-17T23:51:56.542Z,44.04
2023-03-17T23:54:28.334Z,43.67
2023-03-17T23:56:55.201Z,43.72
2023-03-17T23:59:22.573Z,44.36
